Terminal Aerodrome Forecast
Issued by NWS

Home | Current Version | Previous Version | Text Only | Print | Product List | Glossary On
Versions: 1 2 3 4 5 6 7 8 9 10 11 12 13
000
FTUS45 KPSR 262330
TAFBLH
TAF
KBLH 262330Z 2700/2724 26015G26KT P6SM FEW120
     FM270600 26012KT P6SM SKC
     FM270900 22007KT P6SM SKC
     FM272000 22016G25KT P6SM SKC=

USA.gov is the U.S. government's official web portal to all federal, state and local government web resources and services.